Time;durP1;ratioP1;P1;durP2;ratioP2;P2;SDS_P1;SDS_P2;PMS_P1;PMS_P2;Temp;Humidity;BMP_temperature;BMP_pressure;BME280_temperature;BME280_humidity;BME280_pressure;Samples;Min_cycle;Max_cycle;Signal;HPM_P1;HPM_P2
2022/01/22 00:01:11;;;;;;;3.37;1.43;;;-0.30;96.00;;;-2.15;65.40;100536.53;10401823;27;96587;-78
2022/01/22 00:06:15;;;;;;;12.87;1.63;;;-0.30;95.50;;;-2.14;65.44;100553.84;10423208;27;96507;-77
2022/01/22 00:11:18;;;;;;;5.13;1.83;;;-0.20;95.10;;;-2.05;64.75;100532.50;10399709;27;96514;-77
2022/01/22 00:16:21;;;;;;;7.30;1.53;;;-0.20;94.90;;;-2.00;64.33;100529.69;10389580;27;98152;-77
2022/01/22 00:21:24;;;;;;;3.53;1.43;;;-0.10;94.10;;;-1.97;64.41;100550.38;10427854;27;96636;-77
2022/01/22 00:26:27;;;;;;;7.90;1.90;;;-0.10;94.00;;;-1.95;64.20;100531.13;10408717;28;96583;-77
2022/01/22 00:31:30;;;;;;;4.83;1.57;;;0.00;94.20;;;-1.98;64.08;100533.91;10439985;27;96552;-77
2022/01/22 00:36:34;;;;;;;4.83;1.60;;;-0.10;93.90;;;-2.01;64.20;100526.25;10426278;27;96706;-77
2022/01/22 00:41:37;;;;;;;5.73;1.50;;;-0.10;93.90;;;-2.02;64.13;100508.09;10396035;27;96568;-77
2022/01/22 00:46:40;;;;;;;4.30;1.73;;;-0.10;93.60;;;-2.03;64.21;100503.81;10421874;27;96576;-77
2022/01/22 00:51:43;;;;;;;2.30;1.23;;;-0.10;93.50;;;-2.04;64.07;100492.56;10388596;28;96680;-77
2022/01/22 00:56:46;;;;;;;5.77;1.47;;;-0.10;93.50;;;-1.99;64.24;100487.09;10385829;27;96910;-77
2022/01/22 01:01:49;;;;;;;3.57;1.47;;;0.00;93.60;;;-1.89;63.85;100476.09;10422329;28;96598;-77
2022/01/22 01:06:52;;;;;;;5.57;1.20;;;0.00;93.60;;;-1.82;63.64;100454.94;10403790;28;96429;-77
2022/01/22 01:12:00;;;;;;;1.80;1.10;;;0.10;93.70;;;-1.75;62.57;100451.91;10388694;27;96614;-78
2022/01/22 01:33:03;;;;;;;2.63;1.00;;;0.40;90.40;;;-1.54;61.33;100408.22;10420602;27;96663;-77
2022/01/22 01:38:07;;;;;;;2.67;1.20;;;0.40;90.90;;;-1.52;61.24;100388.09;10408617;27;97093;-78
2022/01/22 01:43:20;;;;;;;3.47;1.10;;;0.40;91.00;;;-1.47;61.50;100372.22;10383656;27;96628;-77
2022/01/22 01:48:28;;;;;;;3.53;1.00;;;0.40;91.20;;;-1.50;61.85;100357.59;10442354;27;96615;-77
2022/01/22 01:53:49;;;;;;;3.30;1.40;;;0.50;90.70;;;-1.50;62.07;100343.69;10434881;27;96705;-77
2022/01/22 01:58:55;;;;;;;3.00;1.37;;;0.40;91.20;;;-1.46;62.15;100333.00;10393752;28;96495;-77
2022/01/22 02:03:57;;;;;;;2.73;1.10;;;0.40;90.90;;;-1.43;62.13;100327.63;10404030;27;97403;-77
2022/01/22 02:09:01;;;;;;;2.43;1.30;;;0.50;91.20;;;-1.44;62.32;100310.31;10418385;27;96721;-77
2022/01/22 02:23:31;;;;;;;4.13;1.50;;;0.50;91.40;;;-1.45;62.63;100308.63;10429765;27;96964;-77
2022/01/22 02:24:53;;;;;;;4.00;1.27;;;0.50;91.60;;;-1.35;62.92;100293.28;10427928;27;96556;-77
2022/01/22 02:29:56;;;;;;;2.73;1.10;;;0.60;91.70;;;-1.28;62.85;100265.09;10412050;28;98355;-77
2022/01/22 02:35:08;;;;;;;1.93;0.93;;;0.60;91.80;;;-1.23;62.59;100270.88;10397855;27;97720;-77
2022/01/22 02:40:19;;;;;;;2.27;1.17;;;0.70;91.80;;;-1.17;62.58;100278.34;10407058;27;96641;-77
2022/01/22 02:45:23;;;;;;;1.40;0.90;;;0.70;91.70;;;-1.16;62.63;100269.59;10412165;27;97634;-77
2022/01/22 02:50:26;;;;;;;1.97;0.93;;;0.70;91.30;;;-1.17;62.52;100260.91;10420177;27;96348;-76
2022/01/22 02:55:29;;;;;;;2.37;1.00;;;0.70;91.50;;;-1.19;62.55;100259.34;10403227;27;96669;-77
2022/01/22 03:00:34;;;;;;;3.27;1.10;;;0.70;91.40;;;-1.22;62.58;100251.69;10405539;28;96641;-77
2022/01/22 03:05:37;;;;;;;5.83;1.13;;;0.70;91.50;;;-1.21;62.58;100248.16;10430198;27;96509;-77
2022/01/22 03:10:44;;;;;;;4.20;1.23;;;0.70;91.40;;;-1.17;62.28;100255.69;10377076;28;96501;-77
2022/01/22 03:16:01;;;;;;;3.30;0.90;;;0.70;91.00;;;-1.13;62.17;100275.47;10430340;27;96795;-77
2022/01/22 03:21:26;;;;;;;2.73;0.80;;;0.80;91.30;;;-1.09;62.55;100282.16;10418964;27;96603;-77
2022/01/22 03:31:50;;;;;;;3.80;1.00;;;0.90;91.60;;;-1.01;62.94;100262.63;10406775;28;96563;-77
2022/01/22 03:36:53;;;;;;;3.33;0.90;;;0.90;91.80;;;-0.93;62.93;100258.59;10397382;28;96651;-78
2022/01/22 03:41:56;;;;;;;1.40;0.53;;;0.90;91.60;;;-0.87;64.04;100265.22;10397127;27;97101;-77
2022/01/22 03:46:59;;;;;;;3.40;1.20;;;1.00;93.00;;;-0.85;65.47;100237.25;10407596;27;96504;-77
2022/01/22 03:52:03;;;;;;;2.57;0.70;;;1.00;94.10;;;-0.86;66.18;100228.59;10380612;28;96644;-77
2022/01/22 03:57:08;;;;;;;1.53;0.63;;;1.00;94.40;;;-0.88;67.65;100227.84;10412748;28;96580;-77
2022/01/22 04:12:33;;;;;;;2.53;0.60;;;0.80;99.30;;;-1.16;71.91;100214.81;10431802;27;97489;-78
2022/01/22 04:24:49;;;;;;;19.23;8.43;;;0.80;99.90;;;-1.32;74.98;100204.47;10415944;27;96536;-77
2022/01/22 04:28:20;;;;;;;1.98;1.15;;;0.50;99.90;;;-1.55;77.16;100198.03;10409698;27;96554;-77
2022/01/22 04:33:23;;;;;;;2.87;1.07;;;0.40;99.90;;;-1.63;78.72;100193.25;10370841;28;96743;-77
2022/01/22 04:38:26;;;;;;;3.50;1.27;;;0.30;99.90;;;-1.71;80.11;100199.88;10434528;27;96851;-77
2022/01/22 04:43:32;;;;;;;3.87;1.20;;;0.20;99.90;;;-1.80;81.59;100196.03;10396813;28;96487;-77
2022/01/22 04:49:13;;;;;;;2.13;1.17;;;0.10;99.90;;;-1.84;81.94;100204.97;10415551;27;98413;-77
2022/01/22 04:59:27;;;;;;;3.30;1.60;;;0.10;99.90;;;-1.83;83.29;100218.81;10418467;27;96605;-77
2022/01/22 05:04:29;;;;;;;9.70;3.10;;;0.10;99.90;;;-1.83;83.40;100213.59;10398755;27;96514;-77
2022/01/22 05:09:32;;;;;;;5.67;2.03;;;0.10;99.90;;;-1.82;83.83;100216.13;10377988;28;96558;-77
2022/01/22 05:14:35;;;;;;;12.20;6.17;;;0.20;99.90;;;-1.82;84.42;100220.47;10410451;27;96587;-77
2022/01/22 05:24:48;;;;;;;3.57;1.80;;;0.20;99.90;;;-1.74;85.40;100233.91;10391470;27;96586;-77
2022/01/22 05:30:06;;;;;;;5.03;2.00;;;0.20;99.90;;;-1.73;85.90;100244.25;10411156;28;96713;-78
2022/01/22 05:40:30;;;;;;;3.40;1.60;;;0.30;99.90;;;-1.60;86.40;100222.69;10385167;28;96818;-78
2022/01/22 05:45:33;;;;;;;5.63;2.37;;;0.30;99.90;;;-1.57;86.84;100220.72;10421412;27;98607;-78
2022/01/22 05:50:48;;;;;;;3.93;1.50;;;0.30;99.90;;;-1.56;86.58;100206.78;10436519;27;96505;-78
2022/01/22 06:00:58;;;;;;;2.47;1.23;;;0.40;99.90;;;-1.70;86.51;100186.75;10407649;27;97133;-78
2022/01/22 06:06:02;;;;;;;4.10;1.50;;;0.30;99.90;;;-1.75;86.64;100193.97;10439850;27;96578;-77
2022/01/22 06:11:09;;;;;;;1.87;1.17;;;0.20;99.90;;;-1.76;86.41;100194.06;10402388;27;96524;-76
2022/01/22 06:16:16;;;;;;;1.90;0.90;;;0.20;99.90;;;-1.74;86.71;100181.78;10420025;27;97647;-77
2022/01/22 06:21:19;;;;;;;4.37;1.90;;;0.20;99.90;;;-1.64;86.65;100181.16;10447686;27;96939;-76
2022/01/22 06:26:21;;;;;;;5.00;1.67;;;0.30;99.90;;;-1.54;86.18;100186.69;10427708;27;96698;-77
2022/01/22 06:31:25;;;;;;;3.10;1.37;;;0.40;99.90;;;-1.39;85.65;100200.56;10395139;27;96760;-76
2022/01/22 06:36:28;;;;;;;3.53;1.80;;;0.50;99.90;;;-1.30;85.16;100191.34;10410799;27;98020;-78
2022/01/22 06:41:46;;;;;;;1.90;1.00;;;0.60;99.90;;;-1.26;84.54;100201.53;10412582;27;98053;-77
2022/01/22 06:46:55;;;;;;;1.53;1.03;;;0.60;99.90;;;-1.19;84.00;100209.81;10436172;27;96509;-78
2022/01/22 06:51:58;;;;;;;4.30;1.40;;;0.70;99.90;;;-1.17;83.80;100227.03;10440227;27;96496;-76
2022/01/22 06:57:01;;;;;;;3.17;1.03;;;0.70;99.90;;;-1.15;83.34;100230.38;10396376;27;98471;-77
2022/01/22 07:02:04;;;;;;;1.87;1.20;;;0.70;99.90;;;-1.14;83.02;100234.69;10410332;27;98001;-78
2022/01/22 07:07:09;;;;;;;3.20;1.23;;;0.80;99.90;;;-1.01;82.49;100237.38;10406104;28;96600;-78
2022/01/22 07:12:13;;;;;;;2.60;1.80;;;0.80;99.90;;;-0.58;81.55;100234.72;10400592;27;96744;-77
2022/01/22 07:17:17;;;;;;;2.73;1.80;;;0.90;99.90;;;-0.29;79.78;100220.66;10386442;27;96624;-76
2022/01/22 07:22:46;;;;;;;2.70;1.47;;;1.10;99.90;;;-0.25;77.86;100230.91;10421043;27;96454;-76
2022/01/22 07:27:50;;;;;;;4.17;1.87;;;1.20;99.90;;;-0.43;77.73;100233.75;10459506;27;96508;-77
2022/01/22 07:32:52;;;;;;;9.00;3.27;;;1.20;99.90;;;-0.55;77.85;100242.34;10420897;27;96813;-76
2022/01/22 07:37:56;;;;;;;5.17;2.87;;;1.20;99.90;;;-0.63;78.35;100258.50;10398236;27;96529;-77
2022/01/22 07:42:59;;;;;;;5.63;2.27;;;1.20;99.90;;;-0.65;78.34;100276.03;10375682;28;96658;-76
2022/01/22 07:48:03;;;;;;;2.43;1.53;;;1.20;99.90;;;-0.61;78.08;100287.09;10391891;27;96437;-77
2022/01/22 07:53:11;;;;;;;3.63;1.97;;;1.20;99.90;;;-0.55;77.76;100289.34;10396005;28;96626;-77
2022/01/22 07:58:14;;;;;;;4.23;1.70;;;1.30;99.90;;;-0.44;76.35;100293.88;10416625;28;96760;-76
2022/01/22 08:03:17;;;;;;;4.37;1.83;;;1.40;99.90;;;-0.33;75.70;100294.91;10425062;27;96490;-75
2022/01/22 08:08:20;;;;;;;3.30;1.37;;;1.50;99.90;;;-0.25;74.83;100294.41;10413690;27;96523;-76
2022/01/22 08:13:23;;;;;;;2.67;1.40;;;1.60;99.90;;;0.17;74.36;100306.50;10398463;28;96533;-75
2022/01/22 08:18:26;;;;;;;2.97;1.20;;;1.80;99.90;;;0.87;72.06;100303.66;10395100;27;96535;-77
2022/01/22 08:23:31;;;;;;;3.70;1.60;;;2.10;99.90;;;1.37;68.61;100296.72;10411138;27;97334;-77
2022/01/22 08:28:54;;;;;;;2.90;1.87;;;2.40;99.90;;;2.00;67.17;100306.22;10373055;28;97564;-77
2022/01/22 08:39:21;;;;;;;3.77;1.50;;;3.20;97.90;;;2.76;62.28;100310.25;10424711;27;98333;-77
2022/01/22 08:44:28;;;;;;;3.33;1.87;;;3.60;99.80;;;3.20;59.90;100324.41;10424810;27;97196;-78
2022/01/22 08:49:32;;;;;;;3.33;1.57;;;4.00;96.40;;;3.52;58.27;100331.59;10379802;27;96517;-78
2022/01/22 08:54:36;;;;;;;3.90;2.03;;;4.30;91.80;;;3.67;57.38;100328.59;10422960;27;96754;-78
2022/01/22 08:59:38;;;;;;;2.30;1.20;;;4.60;92.60;;;3.86;56.08;100343.75;10395108;27;96618;-78
2022/01/22 09:04:42;;;;;;;3.07;1.50;;;4.70;87.90;;;3.88;55.09;100347.09;10433618;27;96468;-78
2022/01/22 09:09:45;;;;;;;2.67;1.40;;;4.80;84.50;;;3.97;55.56;100345.53;10393933;27;96739;-78
2022/01/22 09:14:48;;;;;;;3.63;1.50;;;4.90;88.50;;;4.01;54.98;100363.56;10392910;28;97784;-78
2022/01/22 09:19:57;;;;;;;6.60;3.00;;;5.10;88.30;;;3.44;55.27;100364.53;10412644;27;98179;-77
2022/01/22 09:24:59;;;;;;;2.23;1.63;;;4.80;85.10;;;3.49;54.37;100366.81;10398799;27;96755;-77
2022/01/22 09:30:05;;;;;;;1.80;1.20;;;4.70;82.60;;;3.82;54.11;100378.28;10385071;27;96607;-78
2022/01/22 09:35:08;;;;;;;2.77;1.40;;;4.90;82.40;;;4.47;53.32;100386.19;10421452;27;97248;-78
2022/01/22 09:40:12;;;;;;;48.33;15.70;;;5.30;81.20;;;5.03;51.40;100382.50;10395486;27;96654;-78
2022/01/22 09:45:17;;;;;;;4.40;1.60;;;5.80;77.30;;;5.29;51.23;100382.97;10420530;27;96571;-78
2022/01/22 09:50:25;;;;;;;2.07;1.30;;;6.10;80.30;;;5.58;47.80;100378.69;10421898;27;96537;-78
2022/01/22 09:55:28;;;;;;;4.83;1.83;;;6.40;69.60;;;5.81;48.64;100378.50;10450670;27;96558;-78
2022/01/22 10:00:31;;;;;;;2.80;1.40;;;6.70;72.80;;;5.79;47.16;100373.34;10382741;27;96648;-78
2022/01/22 10:05:37;;;;;;;2.80;1.40;;;6.80;72.00;;;5.32;47.08;100386.16;10408272;27;96620;-77
2022/01/22 10:10:40;;;;;;;2.60;1.40;;;6.50;69.20;;;4.49;48.88;100386.91;10431124;27;96618;-77
2022/01/22 10:15:43;;;;;;;4.53;1.40;;;6.00;67.80;;;3.68;49.86;100388.09;10444533;27;96711;-77
2022/01/22 10:20:47;;;;;;;2.43;1.47;;;5.30;68.00;;;3.05;52.41;100383.31;10402363;27;97954;-77
2022/01/22 10:26:01;;;;;;;4.57;2.20;;;4.90;70.40;;;3.25;51.43;100390.56;10367864;28;96560;-77
2022/01/22 10:31:08;;;;;;;4.43;1.87;;;4.90;69.90;;;3.58;50.59;100394.16;10406749;27;96706;-76
2022/01/22 10:36:19;;;;;;;5.17;1.77;;;5.10;69.20;;;4.07;48.59;100398.22;10398150;27;96623;-76
2022/01/22 10:41:54;;;;;;;3.47;1.42;;;5.40;69.30;;;3.93;47.20;100402.78;10436307;27;97195;-75
2022/01/22 10:47:03;;;;;;;3.70;1.60;;;5.40;63.80;;;3.57;46.03;100416.16;10379723;28;96518;-75
2022/01/22 10:52:11;;;;;;;5.53;2.07;;;5.20;61.10;;;3.28;48.28;100419.19;10422996;27;96637;-76
2022/01/22 10:57:20;;;;;;;2.57;1.37;;;5.00;64.70;;;3.92;47.66;100422.16;10404241;28;97856;-79
2022/01/22 11:02:38;;;;;;;3.70;1.53;;;5.40;63.70;;;4.67;45.87;100421.41;10418038;27;98731;-77
2022/01/22 11:07:41;;;;;;;2.60;1.20;;;5.90;61.60;;;5.12;43.53;100436.22;10382455;27;96607;-77
2022/01/22 11:12:44;;;;;;;3.60;1.60;;;6.30;58.90;;;5.13;44.23;100440.53;10419276;27;96593;-78
2022/01/22 11:17:48;;;;;;;2.80;1.37;;;6.40;59.80;;;5.41;43.10;100450.44;10417429;27;98367;-77
2022/01/22 11:22:52;;;;;;;2.80;1.30;;;6.70;59.40;;;5.58;42.48;100464.84;10409642;27;96624;-77
2022/01/22 11:27:57;;;;;;;4.57;1.80;;;6.80;57.10;;;5.34;41.76;100459.84;10411393;27;97971;-77
2022/01/22 11:33:09;;;;;;;1.87;1.17;;;6.70;56.90;;;4.56;43.33;100469.69;10418313;27;96605;-77
2022/01/22 11:38:19;;;;;;;5.00;1.73;;;6.20;58.10;;;3.89;43.84;100453.09;10422937;27;96611;-76
2022/01/22 11:43:34;;;;;;;5.93;2.70;;;5.70;58.30;;;3.36;45.74;100471.16;10412050;27;96604;-76
2022/01/22 11:48:37;;;;;;;5.17;2.00;;;5.20;59.40;;;2.94;45.74;100490.00;10394120;27;96738;-76
2022/01/22 11:53:41;;;;;;;3.83;1.70;;;4.80;59.20;;;2.67;46.57;100484.09;10429676;27;96707;-76
2022/01/22 11:59:00;;;;;;;4.80;1.63;;;4.60;59.90;;;2.40;45.79;100485.13;10363397;28;96581;-76
2022/01/22 12:04:03;;;;;;;2.80;1.10;;;4.30;59.20;;;2.26;46.25;100500.16;10422715;27;96531;-76
2022/01/22 12:09:26;;;;;;;2.73;1.30;;;4.10;59.40;;;2.13;46.26;100498.38;10403561;27;96633;-76
2022/01/22 12:14:47;;;;;;;3.10;1.40;;;4.00;59.40;;;2.12;46.68;100503.75;10399862;27;96625;-77
2022/01/22 12:20:05;;;;;;;3.40;2.20;;;4.00;60.00;;;2.14;46.82;100501.84;10426184;27;98720;-76
2022/01/22 12:25:14;;;;;;;4.43;1.40;;;4.00;59.90;;;2.13;45.69;100500.16;10428999;27;96571;-77
2022/01/22 12:30:46;;;;;;;4.57;1.73;;;4.00;58.60;;;2.08;44.99;100491.78;10449270;27;96589;-77
2022/01/22 12:35:58;;;;;;;3.77;1.50;;;3.90;57.40;;;2.02;45.10;100494.81;10420027;27;96449;-77
2022/01/22 12:41:29;;;;;;;3.23;1.47;;;3.80;57.70;;;1.97;45.32;100476.78;10418284;27;96583;-77
2022/01/22 12:46:34;;;;;;;5.70;1.77;;;3.80;58.60;;;1.98;44.91;100495.97;10409311;27;96865;-77
2022/01/22 12:51:37;;;;;;;3.77;1.50;;;3.80;58.30;;;2.01;43.75;100508.88;10355903;28;96671;-77
2022/01/22 13:01:46;;;;;;;2.50;1.17;;;3.80;56.00;;;1.90;42.97;100522.72;10402996;27;98236;-77
2022/01/22 13:06:52;;;;;;;3.10;1.30;;;3.70;54.90;;;1.79;43.24;100522.59;10409448;27;99121;-77
2022/01/22 13:11:57;;;;;;;5.63;2.10;;;3.60;55.90;;;1.77;44.11;100525.34;10384155;27;96902;-77
2022/01/22 13:17:00;;;;;;;7.57;3.10;;;3.60;57.20;;;1.77;44.90;100524.50;10386835;27;97346;-77
2022/01/22 13:22:05;;;;;;;3.50;1.60;;;3.60;57.80;;;1.73;44.69;100531.72;10399942;27;96606;-77
2022/01/22 13:27:17;;;;;;;2.80;1.70;;;3.60;57.30;;;1.69;43.08;100550.38;10414435;27;97361;-77
2022/01/22 13:37:57;;;;;;;4.07;1.50;;;3.40;55.10;;;1.61;42.71;100566.59;10381613;27;96606;-77
2022/01/22 13:48:09;;;;;;;4.30;1.92;;;3.40;55.40;;;1.52;42.88;100578.53;10421805;27;96655;-77
2022/01/22 13:53:25;;;;;;;4.70;1.67;;;3.30;55.20;;;1.45;43.27;100592.97;10419510;27;96656;-76
2022/01/22 13:58:28;;;;;;;6.33;2.40;;;3.30;55.10;;;1.39;43.17;100609.09;10437096;27;97968;-77
2022/01/22 14:03:36;;;;;;;3.20;1.77;;;3.20;55.40;;;1.33;43.84;100620.78;10402400;27;96511;-77
2022/01/22 14:08:40;;;;;;;2.23;1.27;;;3.10;55.90;;;1.26;44.31;100624.75;10424456;27;96562;-77
2022/01/22 14:13:42;;;;;;;3.10;2.00;;;3.10;56.80;;;1.20;44.85;100637.34;10378258;27;96565;-77
2022/01/22 14:18:46;;;;;;;3.70;1.83;;;3.00;56.80;;;1.13;44.91;100654.38;10425506;27;98138;-77
2022/01/22 14:23:51;;;;;;;3.70;1.90;;;3.00;57.20;;;1.05;44.59;100668.81;10370740;27;96673;-77
2022/01/22 14:28:58;;;;;;;4.70;2.20;;;2.90;56.70;;;1.01;45.11;100695.25;10411556;27;96586;-78
2022/01/22 14:34:05;;;;;;;6.40;2.20;;;2.80;57.20;;;0.94;45.60;100696.56;10402917;27;96581;-77
2022/01/22 14:39:28;;;;;;;3.13;1.30;;;2.80;58.00;;;0.87;45.24;100695.28;10417966;27;96557;-78
2022/01/22 14:44:37;;;;;;;6.27;2.73;;;2.70;57.20;;;0.79;45.78;100707.06;10417027;27;96973;-78
2022/01/22 14:49:44;;;;;;;5.37;2.67;;;2.70;58.20;;;0.69;46.60;100702.47;10415990;27;98443;-77
2022/01/22 14:54:49;;;;;;;5.57;2.13;;;2.60;58.70;;;0.56;46.64;100712.81;10401003;28;96923;-77
2022/01/22 14:59:53;;;;;;;7.03;2.83;;;2.50;58.60;;;0.41;47.32;100719.78;10433363;27;97331;-78
2022/01/22 15:04:57;;;;;;;5.03;2.00;;;2.40;59.20;;;0.28;47.74;100707.53;10401974;27;96613;-79
2022/01/22 15:10:00;;;;;;;4.53;1.83;;;2.20;59.80;;;0.13;47.73;100715.34;10419926;27;96578;-78
2022/01/22 15:15:05;;;;;;;3.97;1.80;;;2.10;59.50;;;0.04;46.93;100726.31;10417113;27;96793;-78
2022/01/22 15:20:09;;;;;;;4.07;1.77;;;2.00;58.70;;;-0.09;47.48;100741.84;10399108;28;97609;-77
2022/01/22 15:25:12;;;;;;;5.40;2.10;;;1.90;59.40;;;-0.22;48.32;100750.47;10408502;27;98509;-77
2022/01/22 15:35:20;;;;;;;4.80;2.33;;;1.70;60.90;;;-0.40;49.30;100774.06;10439256;27;97509;-77
2022/01/22 15:40:31;;;;;;;8.27;2.90;;;1.50;61.60;;;-0.51;49.90;100779.00;10400874;27;96636;-77
2022/01/22 15:45:35;;;;;;;14.27;5.93;;;1.50;62.30;;;-0.59;49.83;100786.44;10433204;27;97059;-78
2022/01/22 15:50:39;;;;;;;5.80;3.70;;;1.40;61.80;;;-0.62;50.11;100797.84;10391416;28;96780;-78
2022/01/22 15:55:49;;;;;;;8.83;4.67;;;1.30;62.20;;;-0.68;49.54;100805.19;10397203;27;96576;-78
2022/01/22 16:00:52;;;;;;;5.87;2.23;;;1.30;61.80;;;-0.73;49.01;100826.28;10414083;27;96481;-77
2022/01/22 16:05:57;;;;;;;5.83;2.07;;;1.20;61.30;;;-0.76;49.16;100838.69;10398777;27;96506;-77
2022/01/22 16:11:00;;;;;;;3.30;1.90;;;1.20;61.10;;;-0.78;48.91;100848.31;10431689;27;96523;-77
2022/01/22 16:16:03;;;;;;;6.67;3.03;;;1.10;60.80;;;-0.84;48.65;100866.03;10413764;27;96504;-77
2022/01/22 16:21:07;;;;;;;6.37;2.63;;;1.10;60.80;;;-0.88;49.00;100884.50;10401748;28;96499;-77
2022/01/22 16:26:09;;;;;;;4.83;2.17;;;1.10;61.00;;;-0.97;49.23;100898.84;10396556;27;96534;-77
2022/01/22 16:31:12;;;;;;;6.63;3.13;;;1.00;61.20;;;-1.05;49.91;100895.78;10413089;27;96523;-76
2022/01/22 16:36:16;;;;;;;4.60;2.23;;;1.00;62.30;;;-1.11;50.73;100911.75;10402804;27;97071;-77
2022/01/22 16:41:19;;;;;;;5.23;2.60;;;0.90;62.80;;;-1.14;51.15;100914.50;10388189;28;96557;-77
2022/01/22 16:52:05;;;;;;;6.33;2.57;;;0.80;64.40;;;-1.29;52.40;100957.81;10404888;27;96449;-77
2022/01/22 16:56:59;;;;;;;5.97;2.40;;;0.70;65.20;;;-1.37;52.94;100971.25;10451311;27;96697;-77
2022/01/22 17:02:23;;;;;;;9.53;3.30;;;0.70;65.00;;;-1.45;53.38;100991.59;10427141;27;96490;-77
2022/01/22 17:07:39;;;;;;;4.43;2.13;;;0.60;65.90;;;-1.51;53.95;101014.50;10406804;27;96625;-77
2022/01/22 17:18:04;;;;;;;2.70;1.27;;;0.40;66.70;;;-1.70;54.87;101027.53;10413182;27;97238;-77
2022/01/22 17:23:07;;;;;;;11.47;5.30;;;0.30;66.80;;;-1.81;55.49;101034.97;10384890;27;96624;-77
2022/01/22 17:28:10;;;;;;;13.53;5.37;;;0.20;67.30;;;-1.93;56.24;101042.41;10370042;27;96656;-77
2022/01/22 17:33:19;;;;;;;5.83;2.70;;;0.10;68.00;;;-2.05;56.24;101037.75;10413602;28;97421;-77
2022/01/22 17:38:23;;;;;;;2.83;1.80;;;0.00;68.20;;;-2.15;56.76;101046.91;10419448;27;96660;-79
2022/01/22 17:43:30;;;;;;;3.70;1.30;;;-0.10;69.10;;;-2.12;56.62;101049.34;10444552;27;96733;-79
2022/01/22 17:48:35;;;;;;;4.53;1.80;;;-0.10;69.40;;;-2.11;56.77;101058.84;10413744;27;96590;-78
2022/01/22 17:53:38;;;;;;;8.97;3.37;;;-0.10;70.00;;;-2.20;56.99;101044.47;10393792;27;96632;-78
2022/01/22 17:58:43;;;;;;;8.50;5.43;;;-0.20;70.20;;;-2.25;57.68;101063.81;10393082;27;97260;-78
2022/01/22 18:03:51;;;;;;;3.57;2.27;;;-0.30;71.00;;;-2.29;57.78;101086.53;10430070;27;96506;-78
2022/01/22 18:09:00;;;;;;;4.33;1.60;;;-0.30;71.30;;;-2.36;58.17;101084.25;10412172;27;96684;-78
2022/01/22 18:14:06;;;;;;;3.47;1.27;;;-0.30;71.90;;;-2.36;57.59;101081.63;10426012;27;96579;-79
2022/01/22 18:19:09;;;;;;;6.23;2.30;;;-0.40;71.60;;;-2.32;57.16;101070.19;10411081;27;97174;-80
2022/01/22 18:24:12;;;;;;;4.63;1.90;;;-0.40;71.60;;;-2.30;57.26;101081.38;10399423;27;98316;-78
2022/01/22 18:29:20;;;;;;;5.53;1.60;;;-0.30;71.30;;;-2.29;57.02;101080.47;10391985;27;96705;-77
2022/01/22 18:34:27;;;;;;;6.00;2.30;;;-0.30;71.40;;;-2.30;57.39;101084.00;10446527;27;96567;-78
2022/01/22 18:39:30;;;;;;;6.87;2.40;;;-0.30;71.60;;;-2.33;57.49;101094.53;10418144;27;96409;-77
2022/01/22 18:44:33;;;;;;;10.47;4.00;;;-0.30;72.00;;;-2.37;57.72;101112.03;10434797;27;98118;-81
2022/01/22 18:49:36;;;;;;;4.93;1.63;;;-0.40;72.10;;;-2.35;57.69;101119.78;10433127;27;96721;-78
2022/01/22 18:54:39;;;;;;;3.13;1.60;;;-0.40;72.20;;;-2.36;57.82;101120.69;10398700;27;96596;-77
2022/01/22 18:59:42;;;;;;;5.80;2.27;;;-0.40;72.60;;;-2.36;57.96;101125.91;10411497;27;96538;-77
2022/01/22 19:04:46;;;;;;;5.67;2.33;;;-0.40;72.60;;;-2.38;58.08;101135.53;10454690;27;96565;-77
2022/01/22 19:09:49;;;;;;;9.23;2.57;;;-0.40;72.80;;;-2.37;57.92;101129.41;10426554;27;96718;-77
2022/01/22 19:14:52;;;;;;;5.90;2.37;;;-0.40;72.80;;;-2.44;58.28;101134.88;10379519;27;96655;-77
2022/01/22 19:19:54;;;;;;;7.27;2.20;;;-0.40;73.20;;;-2.46;58.38;101135.81;10417196;27;96603;-78
2022/01/22 19:25:25;;;;;;;5.63;2.33;;;-0.40;73.30;;;-2.48;58.84;101143.69;10421696;27;96983;-78
2022/01/22 19:30:21;;;;;;;9.10;3.80;;;-0.40;73.90;;;-2.49;58.53;101142.00;10439695;27;98261;-77
2022/01/22 19:35:24;;;;;;;5.63;1.83;;;-0.50;73.90;;;-2.51;58.83;101143.00;10430261;27;96552;-77
2022/01/22 19:40:29;;;;;;;4.67;1.80;;;-0.50;74.20;;;-2.52;59.23;101151.69;10416407;27;96544;-77
2022/01/22 19:45:39;;;;;;;5.17;1.53;;;-0.50;74.30;;;-2.49;59.02;101151.56;10384914;28;98562;-76
2022/01/22 19:50:43;;;;;;;4.07;2.00;;;-0.50;74.70;;;-2.53;59.05;101166.47;10402571;28;98197;-79
2022/01/22 19:55:49;;;;;;;4.77;1.60;;;-0.50;74.60;;;-2.59;59.32;101171.91;10447342;27;96601;-76
2022/01/22 20:00:52;;;;;;;3.10;1.47;;;-0.50;75.40;;;-2.63;59.73;101172.94;10403665;27;96920;-76
2022/01/22 20:05:55;;;;;;;2.80;1.07;;;-0.60;75.20;;;-2.71;59.59;101172.38;10402270;27;96529;-76
2022/01/22 20:10:59;;;;;;;4.00;1.30;;;-0.60;75.20;;;-2.75;59.88;101171.69;10401986;27;97622;-77
2022/01/22 20:16:02;;;;;;;4.87;1.80;;;-0.70;75.40;;;-2.85;60.16;101166.88;10385800;28;96480;-77
2022/01/22 20:21:05;;;;;;;8.03;3.30;;;-0.80;75.80;;;-2.97;60.61;101165.59;10445777;27;96545;-78
2022/01/22 20:26:28;;;;;;;9.47;3.43;;;-0.90;75.90;;;-3.05;61.04;101160.69;10428725;27;97178;-78
2022/01/22 20:31:31;;;;;;;4.60;2.27;;;-1.00;76.50;;;-3.10;61.46;101173.00;10379270;28;96599;-78
2022/01/22 20:36:36;;;;;;;4.53;1.30;;;-1.00;77.50;;;-3.14;61.71;101167.97;10359166;28;96546;-77
2022/01/22 20:41:39;;;;;;;6.27;1.90;;;-1.00;78.40;;;-3.17;61.99;101158.56;10368939;28;96637;-76
2022/01/22 20:47:03;;;;;;;6.07;2.20;;;-1.10;78.20;;;-3.25;62.41;101148.41;10335873;28;96622;-77
2022/01/22 20:52:06;;;;;;;9.97;3.27;;;-1.10;78.80;;;-3.29;62.68;101131.25;10365160;28;96611;-77
2022/01/22 20:57:10;;;;;;;6.80;2.27;;;-1.20;79.50;;;-3.28;62.87;101134.69;10384036;28;96630;-77
2022/01/22 21:02:14;;;;;;;7.50;2.30;;;-1.20;80.00;;;-3.29;62.80;101143.41;10378485;28;98314;-77
2022/01/22 21:07:18;;;;;;;4.53;2.17;;;-1.20;79.90;;;-3.33;63.12;101140.06;10426341;27;97504;-77
2022/01/22 21:12:21;;;;;;;5.83;1.83;;;-1.20;80.00;;;-3.33;63.08;101141.81;10417321;27;96556;-77
2022/01/22 21:17:24;;;;;;;8.67;2.20;;;-1.30;80.50;;;-3.30;63.37;101141.69;10400645;28;96663;-77
2022/01/22 21:22:27;;;;;;;4.23;1.70;;;-1.20;81.00;;;-3.25;63.47;101131.97;10415714;28;96608;-77
2022/01/22 21:27:30;;;;;;;5.57;1.33;;;-1.20;82.00;;;-3.11;63.14;101131.47;10415128;27;97575;-77
2022/01/22 21:32:34;;;;;;;5.07;1.63;;;-1.10;82.30;;;-3.07;63.00;101127.84;10421296;27;97741;-77
2022/01/22 21:43:04;;;;;;;5.33;2.10;;;-1.10;82.30;;;-3.10;62.97;101115.81;10393007;28;96937;-78
2022/01/22 21:48:07;;;;;;;5.83;1.97;;;-1.10;82.70;;;-3.14;63.11;101115.97;10394993;28;96768;-77
2022/01/22 21:53:12;;;;;;;5.50;2.00;;;-1.10;82.70;;;-3.16;63.32;101128.19;10411804;27;96527;-78
2022/01/22 21:58:16;;;;;;;3.43;1.60;;;-1.10;82.50;;;-3.20;63.65;101139.59;10418694;27;97787;-78
2022/01/22 22:03:19;;;;;;;6.33;1.90;;;-1.10;82.70;;;-3.26;63.56;101132.88;10367843;28;97765;-81
2022/01/22 22:08:23;;;;;;;4.03;1.50;;;-1.20;83.10;;;-3.26;63.91;101132.88;10360631;28;97109;-80
2022/01/22 22:13:26;;;;;;;4.83;1.80;;;-1.20;83.40;;;-3.28;63.44;101134.69;10370612;28;96605;-80
2022/01/22 22:18:33;;;;;;;5.03;1.67;;;-1.20;83.70;;;-3.30;63.53;101142.56;10378445;28;96857;-80
2022/01/22 22:23:36;;;;;;;5.03;1.67;;;-1.20;83.60;;;-3.35;63.83;101136.69;10383426;28;97736;-80
2022/01/22 22:28:40;;;;;;;2.77;1.07;;;-1.20;83.70;;;-3.35;63.82;101122.84;10393156;27;96708;-80
2022/01/22 22:33:46;;;;;;;5.30;1.73;;;-1.20;83.80;;;-3.37;63.93;101127.22;10404556;27;96612;-80
2022/01/22 22:38:54;;;;;;;5.37;1.50;;;-1.30;84.20;;;-3.39;64.08;101136.84;10440854;27;96754;-79
2022/01/22 22:44:00;;;;;;;4.00;1.50;;;-1.30;84.00;;;-3.44;64.09;101141.34;10409483;27;96633;-79
2022/01/22 22:49:04;;;;;;;2.70;0.97;;;-1.30;84.00;;;-3.46;64.20;101141.41;10395755;27;96617;-79
2022/01/22 22:54:08;;;;;;;2.60;1.07;;;-1.30;84.50;;;-3.51;64.08;101138.97;10441749;27;96757;-80
2022/01/22 22:59:12;;;;;;;6.33;1.50;;;-1.40;84.70;;;-3.52;64.24;101134.69;10417995;27;96558;-78